CGM2 weather

Smoky Lake (George Mcdougall Health Centre) Heliport
Smoky Lake, Alberta, Canada

Public forecast

Using degrees Celsius for public forecast. Weather courtesy of forecast.io.

METAR (pilot weather report)

Closest report is Edmonton (CFB Namao) Heliport, 44.8 nm (83.1 km) SW. Retrieved 2019/05/27 12:00 UTC (43 minutes ago):

CYED 271200Z AUTO 22006KT 9SM CLR 08/03 A3000 RMK SLP166

TAF (pilot weather forecast)

Closest forecast is Edmonton (CFB Namao) Heliport, 44.8 nm (83.1 km) SW. Retrieved 2019/05/27 12:18 UTC (25 minutes ago):

TAF TAF CYED 271215Z 2712/2724 21005KT P6SM FEW250 RMK FCST BASED ON AUTO OBS 271200-271400Z. NXT FCST BY 271800Z